Time;durP1;ratioP1;P1;durP2;ratioP2;P2;SDS_P1;SDS_P2;PMS_P1;PMS_P2;Temp;Humidity;BMP_temperature;BMP_pressure;BME280_temperature;BME280_humidity;BME280_pressure;Samples;Min_cycle;Max_cycle;Signal;HPM_P1;HPM_P2
2023/03/12 00:01:32;;;;;;;9.57;5.40;;;2.80;99.90;;;;;;5000344;28;20912;-43
2023/03/12 00:04:00;;;;;;;8.38;5.43;;;2.90;99.90;;;;;;5000667;28;20408;-42
2023/03/12 00:06:32;;;;;;;6.60;5.15;;;2.90;99.90;;;;;;4999582;28;20021;-43
2023/03/12 00:09:00;;;;;;;7.50;5.33;;;2.90;99.90;;;;;;5001189;28;20017;-43
2023/03/12 00:11:27;;;;;;;8.25;5.40;;;2.90;99.90;;;;;;5000622;28;20032;-42
2023/03/12 00:13:54;;;;;;;8.85;5.40;;;2.90;99.90;;;;;;5000744;28;20040;-43
2023/03/12 00:16:20;;;;;;;9.32;5.75;;;2.90;99.90;;;;;;5000408;28;20026;-42
2023/03/12 00:18:48;;;;;;;9.32;6.10;;;3.00;99.90;;;;;;4999637;28;20107;-43
2023/03/12 00:21:14;;;;;;;8.88;6.05;;;3.00;99.90;;;;;;4999691;28;20026;-43
2023/03/12 00:23:40;;;;;;;13.27;7.63;;;3.00;99.90;;;;;;5000474;28;20029;-43
2023/03/12 00:26:08;;;;;;;11.02;6.60;;;3.00;99.90;;;;;;4998772;28;20024;-42
2023/03/12 00:28:37;;;;;;;8.75;6.50;;;3.00;99.90;;;;;;5000092;28;20125;-43
2023/03/12 00:31:14;;;;;;;10.45;6.40;;;3.00;99.90;;;;;;4999503;28;20033;-43
2023/03/12 00:33:40;;;;;;;9.90;6.35;;;3.00;99.90;;;;;;4999141;28;20760;-43
2023/03/12 00:36:06;;;;;;;8.98;5.78;;;3.00;99.90;;;;;;4999573;28;20033;-43
2023/03/12 00:38:31;;;;;;;9.55;5.55;;;3.00;99.90;;;;;;5000484;28;20132;-43
2023/03/12 00:40:57;;;;;;;9.13;5.85;;;3.00;99.90;;;;;;4999801;28;20584;-43
2023/03/12 00:43:22;;;;;;;11.18;5.80;;;3.00;99.90;;;;;;4999625;28;20428;-43
2023/03/12 00:45:51;;;;;;;8.57;5.32;;;3.00;99.90;;;;;;5000453;28;20862;-43
2023/03/12 00:48:16;;;;;;;9.20;5.47;;;3.00;99.90;;;;;;4998868;28;20331;-43
2023/03/12 00:50:42;;;;;;;8.52;5.20;;;3.00;99.90;;;;;;5000556;28;20033;-42
2023/03/12 00:53:07;;;;;;;7.22;4.82;;;3.00;99.90;;;;;;4999179;28;20446;-43
2023/03/12 00:55:33;;;;;;;9.40;5.45;;;3.10;99.90;;;;;;4999170;28;20034;-44
2023/03/12 00:57:58;;;;;;;7.50;4.45;;;3.00;99.90;;;;;;4999678;28;20049;-42
2023/03/12 01:00:24;;;;;;;6.93;4.43;;;3.10;99.90;;;;;;5000084;28;20391;-43
2023/03/12 01:02:49;;;;;;;5.50;4.25;;;3.10;99.90;;;;;;4998610;28;20108;-42
2023/03/12 01:05:15;;;;;;;6.60;4.30;;;3.10;99.90;;;;;;4998948;28;20037;-43
2023/03/12 01:07:41;;;;;;;6.13;4.53;;;3.10;99.90;;;;;;4999644;28;20084;-42
2023/03/12 01:10:07;;;;;;;5.63;3.78;;;3.10;99.90;;;;;;4998150;28;20033;-43
2023/03/12 01:12:33;;;;;;;8.48;3.80;;;3.10;99.90;;;;;;4999734;28;20022;-43
2023/03/12 01:14:59;;;;;;;5.93;3.67;;;3.10;99.90;;;;;;4998870;28;20831;-43
2023/03/12 01:17:28;;;;;;;4.25;3.38;;;3.10;99.90;;;;;;4999876;28;20540;-43
2023/03/12 01:19:53;;;;;;;5.60;3.90;;;3.10;99.90;;;;;;4996418;28;20449;-42
2023/03/12 01:22:19;;;;;;;4.20;3.80;;;3.10;99.90;;;;;;4998827;28;20502;-42
2023/03/12 01:24:44;;;;;;;5.57;3.67;;;3.10;99.90;;;;;;4999657;28;20517;-43
2023/03/12 01:27:16;;;;;;;4.70;3.70;;;3.10;99.90;;;;;;4999280;28;20025;-42
2023/03/12 01:29:41;;;;;;;6.43;3.55;;;3.10;99.90;;;;;;4999012;28;20018;-42
2023/03/12 01:32:10;;;;;;;7.03;3.08;;;3.10;99.90;;;;;;4999278;28;20033;-42
2023/03/12 01:34:35;;;;;;;4.93;3.63;;;3.10;99.90;;;;;;4999304;28;20022;-42
2023/03/12 01:37:01;;;;;;;4.07;3.53;;;3.00;99.90;;;;;;4998946;28;20030;-42
2023/03/12 01:39:30;;;;;;;6.07;3.58;;;3.00;99.90;;;;;;4999025;28;20176;-43
2023/03/12 01:41:59;;;;;;;5.93;3.78;;;3.00;99.90;;;;;;4999554;28;20026;-43
2023/03/12 01:44:25;;;;;;;4.18;3.10;;;3.00;99.90;;;;;;4999068;28;20037;-44
2023/03/12 01:46:50;;;;;;;4.70;3.42;;;3.00;99.90;;;;;;5003389;28;20034;-43
2023/03/12 01:49:19;;;;;;;4.50;3.58;;;2.90;99.90;;;;;;5002831;28;20030;-43
2023/03/12 01:51:50;;;;;;;6.15;3.15;;;2.90;99.90;;;;;;5003140;28;20037;-42
2023/03/12 01:54:25;;;;;;;3.70;3.28;;;2.90;99.90;;;;;;5003271;28;20780;-43
2023/03/12 01:56:53;;;;;;;4.72;3.53;;;2.80;99.90;;;;;;5003491;28;20050;-43
2023/03/12 01:59:42;;;;;;;5.30;2.75;;;2.80;99.90;;;;;;5001818;28;20057;-43
2023/03/12 02:02:08;;;;;;;4.68;3.22;;;2.70;99.90;;;;;;5002530;28;20029;-44
2023/03/12 02:04:36;;;;;;;4.18;2.95;;;2.70;99.90;;;;;;5001922;28;20054;-43
2023/03/12 02:07:10;;;;;;;4.38;2.90;;;2.70;99.90;;;;;;5002542;28;20033;-41
2023/03/12 02:09:40;;;;;;;4.38;2.65;;;2.70;99.90;;;;;;5003017;28;20100;-43
2023/03/12 02:12:07;;;;;;;3.45;2.53;;;2.70;99.90;;;;;;5001844;28;20114;-43
2023/03/12 02:14:33;;;;;;;4.28;2.75;;;2.70;99.90;;;;;;5003142;28;20037;-42
2023/03/12 02:16:59;;;;;;;3.05;2.63;;;2.80;99.90;;;;;;5002579;28;20462;-43
2023/03/12 02:19:43;;;;;;;3.90;2.63;;;2.80;99.90;;;;;;5001900;28;20034;-41
2023/03/12 02:22:12;;;;;;;6.60;3.40;;;2.80;99.90;;;;;;5000674;28;20623;-42
2023/03/12 02:24:51;;;;;;;4.22;3.10;;;2.80;99.90;;;;;;5000502;28;20034;-42
2023/03/12 02:27:18;;;;;;;3.38;2.85;;;2.90;99.90;;;;;;4999374;28;20028;-43
2023/03/12 02:29:45;;;;;;;7.65;3.10;;;2.90;99.90;;;;;;5003315;28;20045;-43
2023/03/12 02:32:21;;;;;;;5.63;3.28;;;2.90;99.90;;;;;;5001590;28;20052;-43
2023/03/12 02:34:50;;;;;;;4.03;2.75;;;3.00;99.90;;;;;;5002792;28;20032;-43
2023/03/12 02:37:17;;;;;;;4.30;2.95;;;3.00;99.90;;;;;;5000875;28;20545;-42
2023/03/12 02:39:48;;;;;;;4.20;3.13;;;3.00;99.90;;;;;;5001976;28;20034;-42
2023/03/12 02:42:14;;;;;;;5.03;3.17;;;3.00;99.90;;;;;;5000787;28;20034;-42
2023/03/12 02:44:42;;;;;;;3.90;2.97;;;3.00;99.90;;;;;;5001927;28;20026;-42
2023/03/12 02:47:08;;;;;;;4.32;3.30;;;3.00;99.90;;;;;;5000930;28;20428;-44
2023/03/12 02:49:34;;;;;;;4.78;3.28;;;3.10;99.90;;;;;;5002288;28;20041;-42
2023/03/12 02:52:00;;;;;;;6.05;3.05;;;3.10;99.90;;;;;;5001959;28;20034;-43
2023/03/12 02:54:29;;;;;;;5.20;3.20;;;3.10;99.90;;;;;;5001656;28;20026;-43
2023/03/12 02:56:55;;;;;;;5.57;3.40;;;3.10;99.90;;;;;;5000120;28;20053;-43
2023/03/12 02:59:24;;;;;;;4.03;2.88;;;3.20;99.90;;;;;;5000638;28;20041;-43
2023/03/12 03:01:56;;;;;;;6.95;3.25;;;3.20;99.90;;;;;;5001757;28;20105;-43
2023/03/12 03:04:22;;;;;;;4.43;2.65;;;3.20;99.90;;;;;;5001860;28;20076;-43
2023/03/12 03:06:48;;;;;;;5.65;2.58;;;3.20;99.90;;;;;;5001947;28;20029;-42
2023/03/12 03:09:14;;;;;;;3.05;2.22;;;3.20;99.90;;;;;;5000800;28;20065;-42
2023/03/12 03:11:40;;;;;;;3.50;2.38;;;3.30;99.90;;;;;;5002093;28;20022;-42
2023/03/12 03:14:06;;;;;;;2.75;1.95;;;3.30;99.90;;;;;;5001300;28;20024;-42
2023/03/12 03:16:32;;;;;;;4.60;2.17;;;3.30;99.90;;;;;;5001009;28;20025;-42
2023/03/12 03:18:58;;;;;;;2.38;1.90;;;3.30;99.90;;;;;;5001477;28;20049;-43
2023/03/12 03:21:24;;;;;;;3.63;1.73;;;3.30;99.90;;;;;;5000628;28;20046;-43
2023/03/12 03:23:50;;;;;;;3.47;2.22;;;3.30;99.90;;;;;;5000661;28;20022;-42
2023/03/12 03:26:22;;;;;;;3.63;2.58;;;3.30;99.90;;;;;;5001111;28;20128;-43
2023/03/12 03:28:48;;;;;;;6.05;2.40;;;3.30;99.90;;;;;;5000121;28;20817;-43
2023/03/12 03:31:13;;;;;;;3.83;2.38;;;3.30;99.90;;;;;;5001223;28;20037;-43
2023/03/12 03:33:39;;;;;;;3.50;2.42;;;3.30;99.90;;;;;;5001425;28;20080;-43
2023/03/12 03:36:07;;;;;;;2.72;2.10;;;3.40;99.90;;;;;;5000016;28;20025;-42
2023/03/12 03:38:36;;;;;;;4.40;2.40;;;3.40;99.90;;;;;;5001180;28;20036;-42
2023/03/12 03:41:02;;;;;;;4.55;2.22;;;3.40;99.90;;;;;;5001204;28;20034;-42
2023/03/12 03:43:27;;;;;;;2.92;2.25;;;3.40;99.90;;;;;;5000382;28;20307;-43
2023/03/12 03:45:57;;;;;;;4.10;2.00;;;3.30;99.90;;;;;;5001363;28;20064;-42
2023/03/12 03:48:23;;;;;;;5.05;2.45;;;3.40;99.90;;;;;;5000761;28;20429;-43
2023/03/12 03:50:49;;;;;;;3.03;1.90;;;3.40;99.90;;;;;;5000248;28;20807;-43
2023/03/12 03:53:14;;;;;;;4.13;2.15;;;3.40;99.90;;;;;;5000441;28;20355;-43
2023/03/12 03:55:40;;;;;;;2.83;1.98;;;3.40;99.90;;;;;;5001312;28;20359;-42
2023/03/12 03:58:06;;;;;;;6.00;1.90;;;3.40;99.90;;;;;;4998790;28;20053;-42
2023/03/12 04:00:32;;;;;;;3.70;2.22;;;3.40;99.90;;;;;;5000383;28;20040;-42
2023/03/12 04:02:58;;;;;;;3.15;1.77;;;3.40;99.90;;;;;;5000741;28;20053;-42
2023/03/12 04:05:24;;;;;;;2.17;1.90;;;3.40;99.90;;;;;;4999684;28;21062;-43
2023/03/12 04:07:51;;;;;;;2.55;1.63;;;3.40;99.90;;;;;;5000977;28;20033;-43
2023/03/12 04:10:22;;;;;;;7.55;2.47;;;3.30;99.90;;;;;;4999908;28;20156;-43
2023/03/12 04:12:48;;;;;;;3.33;1.90;;;3.30;99.90;;;;;;5000540;28;20084;-43
2023/03/12 04:15:14;;;;;;;2.85;2.13;;;3.30;99.90;;;;;;5000379;28;20034;-43
2023/03/12 04:17:39;;;;;;;2.83;1.90;;;3.30;99.90;;;;;;5000722;28;20026;-43
2023/03/12 04:20:07;;;;;;;2.88;1.80;;;3.30;99.90;;;;;;4999171;28;20052;-43
2023/03/12 04:22:33;;;;;;;5.18;2.22;;;3.30;99.90;;;;;;5000887;28;20065;-43
2023/03/12 04:24:58;;;;;;;4.88;2.30;;;3.30;99.90;;;;;;4998919;28;20140;-43
2023/03/12 04:27:24;;;;;;;5.40;1.83;;;3.40;99.90;;;;;;4999636;28;20025;-43
2023/03/12 04:29:49;;;;;;;3.72;1.92;;;3.40;99.90;;;;;;5000512;28;20021;-43
2023/03/12 04:32:15;;;;;;;4.93;1.85;;;3.40;99.90;;;;;;4999110;28;20127;-43
2023/03/12 04:34:41;;;;;;;2.50;1.75;;;3.40;99.90;;;;;;5000241;28;20022;-43
2023/03/12 04:37:10;;;;;;;3.65;1.83;;;3.40;99.90;;;;;;4999709;28;20029;-43
2023/03/12 04:39:35;;;;;;;3.42;2.10;;;3.40;99.90;;;;;;4999102;28;20116;-44
2023/03/12 04:42:01;;;;;;;3.15;1.90;;;3.50;99.90;;;;;;4999941;28;20026;-43
2023/03/12 04:44:26;;;;;;;5.10;2.10;;;3.50;99.90;;;;;;4999656;28;20145;-43
2023/03/12 04:46:52;;;;;;;3.25;1.90;;;3.50;99.90;;;;;;4999466;28;20060;-43
2023/03/12 04:49:24;;;;;;;2.33;1.92;;;3.50;99.90;;;;;;5000578;28;20466;-43
2023/03/12 04:51:49;;;;;;;3.67;2.22;;;3.50;99.90;;;;;;5000787;28;20033;-43
2023/03/12 04:54:15;;;;;;;4.25;2.30;;;3.60;99.90;;;;;;4999093;28;20026;-42
2023/03/12 04:56:40;;;;;;;2.83;2.10;;;3.60;99.90;;;;;;4999836;28;20561;-43
2023/03/12 04:59:06;;;;;;;5.80;2.10;;;3.60;99.90;;;;;;4998549;28;20034;-43
2023/03/12 05:01:34;;;;;;;4.88;2.17;;;3.60;99.90;;;;;;4998983;28;20025;-43
2023/03/12 05:04:03;;;;;;;5.90;2.30;;;3.70;99.90;;;;;;4999616;28;20030;-43
2023/03/12 05:06:28;;;;;;;3.78;2.28;;;3.70;99.90;;;;;;4999705;28;20026;-42
2023/03/12 05:08:57;;;;;;;6.22;2.75;;;3.70;99.90;;;;;;4998345;28;20053;-43
2023/03/12 05:11:26;;;;;;;6.57;3.70;;;3.80;99.90;;;;;;4998351;28;20022;-45
2023/03/12 05:13:51;;;;;;;6.22;2.42;;;3.70;99.90;;;;;;5000355;28;20481;-43
2023/03/12 05:16:17;;;;;;;4.13;2.42;;;3.80;99.90;;;;;;4998548;28;20500;-43
2023/03/12 05:18:46;;;;;;;5.57;2.80;;;3.70;99.90;;;;;;5000127;28;20382;-43
2023/03/12 05:21:18;;;;;;;4.68;2.60;;;3.70;99.90;;;;;;5002179;28;20034;-43
2023/03/12 05:23:47;;;;;;;4.38;2.13;;;3.80;99.90;;;;;;5003916;28;20018;-43
2023/03/12 05:26:20;;;;;;;3.60;2.10;;;3.70;99.90;;;;;;5003133;28;20140;-44
2023/03/12 05:28:46;;;;;;;3.55;1.90;;;3.80;99.90;;;;;;5003873;28;20025;-42
2023/03/12 05:31:13;;;;;;;4.38;2.28;;;3.80;99.90;;;;;;5003768;28;20638;-42
2023/03/12 05:33:39;;;;;;;4.35;2.25;;;3.80;99.90;;;;;;5003887;28;20033;-43
2023/03/12 05:36:05;;;;;;;4.38;2.35;;;3.80;99.90;;;;;;5002247;28;20026;-43
2023/03/12 05:38:31;;;;;;;3.85;2.65;;;3.80;99.90;;;;;;5003561;28;20033;-42
2023/03/12 05:41:00;;;;;;;3.63;2.13;;;3.70;99.90;;;;;;5003925;28;20030;-43
2023/03/12 05:43:26;;;;;;;3.85;2.35;;;3.70;99.90;;;;;;5002414;28;20018;-44
2023/03/12 05:45:52;;;;;;;4.03;2.70;;;3.70;99.90;;;;;;5003961;28;20048;-43
2023/03/12 05:48:21;;;;;;;4.25;2.20;;;3.70;99.90;;;;;;5002566;28;20719;-43
2023/03/12 05:50:46;;;;;;;4.00;2.45;;;3.70;99.90;;;;;;5003017;28;20030;-43
2023/03/12 05:53:12;;;;;;;3.70;2.50;;;3.80;99.90;;;;;;5003331;28;20044;-43
2023/03/12 05:55:38;;;;;;;5.30;2.47;;;3.80;99.90;;;;;;5003189;28;20037;-42
2023/03/12 05:58:05;;;;;;;4.38;2.65;;;3.70;99.90;;;;;;5001430;28;20092;-42
2023/03/12 06:00:34;;;;;;;4.03;2.17;;;3.70;99.90;;;;;;5003083;28;20064;-43
2023/03/12 06:03:00;;;;;;;4.78;3.00;;;3.70;99.90;;;;;;5002379;28;20022;-43
2023/03/12 06:05:25;;;;;;;2.58;2.28;;;3.70;99.90;;;;;;5001729;28;20030;-42
2023/03/12 06:07:54;;;;;;;2.78;2.45;;;3.70;99.90;;;;;;5003210;28;20123;-42
2023/03/12 06:10:26;;;;;;;5.57;2.67;;;3.70;99.90;;;;;;5001430;28;20034;-43
2023/03/12 06:12:51;;;;;;;4.07;2.80;;;3.70;99.90;;;;;;5002754;28;20032;-42
2023/03/12 06:15:17;;;;;;;4.32;2.90;;;3.70;99.90;;;;;;5002268;28;20055;-44
2023/03/12 06:17:42;;;;;;;4.70;2.67;;;3.70;99.90;;;;;;5002043;28;20026;-42
2023/03/12 06:20:11;;;;;;;6.55;3.05;;;3.70;99.90;;;;;;5002142;28;20096;-43
2023/03/12 06:22:40;;;;;;;3.08;2.40;;;3.80;99.90;;;;;;5003113;28;20022;-42
2023/03/12 06:25:08;;;;;;;5.00;2.78;;;3.80;99.90;;;;;;4998169;28;20032;-43
2023/03/12 06:27:34;;;;;;;3.35;2.50;;;3.80;99.90;;;;;;5003616;28;20080;-42
2023/03/12 06:29:59;;;;;;;3.58;2.30;;;3.80;99.90;;;;;;5002365;28;20025;-43
2023/03/12 06:32:25;;;;;;;3.60;2.53;;;3.80;99.90;;;;;;5000138;28;20080;-43
2023/03/12 06:34:50;;;;;;;3.90;2.90;;;3.80;99.90;;;;;;5002497;28;20037;-43
2023/03/12 06:37:16;;;;;;;4.55;2.30;;;3.80;99.90;;;;;;5001791;28;20816;-42
2023/03/12 06:39:44;;;;;;;4.38;2.78;;;3.80;99.90;;;;;;5001436;28;20552;-43
2023/03/12 06:42:11;;;;;;;4.85;2.53;;;3.80;99.90;;;;;;5002475;28;20034;-45
2023/03/12 06:44:46;;;;;;;4.97;2.85;;;3.80;99.90;;;;;;5001990;28;20038;-43
2023/03/12 06:47:27;;;;;;;3.78;2.78;;;3.80;99.90;;;;;;5000835;28;20025;-43
2023/03/12 06:49:52;;;;;;;6.95;3.10;;;3.70;99.90;;;;;;5001377;28;20954;-43
2023/03/12 06:52:21;;;;;;;5.47;2.67;;;3.70;99.90;;;;;;5001611;28;20030;-44
2023/03/12 06:54:47;;;;;;;4.85;2.92;;;3.70;99.90;;;;;;5001160;28;20029;-43
2023/03/12 06:57:15;;;;;;;6.60;2.90;;;3.70;99.90;;;;;;5000448;28;20405;-43
2023/03/12 06:59:43;;;;;;;5.20;3.10;;;3.80;99.90;;;;;;5001050;28;20109;-43
2023/03/12 07:02:10;;;;;;;4.85;3.05;;;3.70;99.90;;;;;;5001263;28;20033;-43
2023/03/12 07:04:36;;;;;;;7.57;3.17;;;3.70;99.90;;;;;;5001676;28;20026;-43
2023/03/12 07:07:02;;;;;;;6.05;3.75;;;3.80;99.90;;;;;;5001296;28;20058;-43
2023/03/12 07:09:28;;;;;;;8.73;3.70;;;3.80;99.90;;;;;;5001792;28;20108;-43
2023/03/12 07:11:53;;;;;;;5.72;3.00;;;3.80;99.90;;;;;;5002662;28;20113;-43
2023/03/12 07:14:20;;;;;;;7.22;3.25;;;3.90;99.90;;;;;;5000235;28;20095;-43
2023/03/12 07:16:46;;;;;;;7.97;3.50;;;3.90;99.90;;;;;;5001757;28;20037;-43
2023/03/12 07:19:14;;;;;;;4.85;3.03;;;4.00;99.90;;;;;;5001441;28;20022;-42
2023/03/12 07:21:40;;;;;;;7.10;3.17;;;4.00;99.90;;;;;;5001257;28;20437;-43
2023/03/12 07:24:08;;;;;;;6.93;3.58;;;4.10;99.90;;;;;;5001847;28;20099;-43
2023/03/12 07:26:34;;;;;;;5.95;3.72;;;4.10;99.90;;;;;;5001677;28;20100;-44
2023/03/12 07:29:01;;;;;;;8.27;3.47;;;4.10;99.90;;;;;;5001251;28;20481;-43
2023/03/12 07:31:29;;;;;;;5.78;2.75;;;4.10;99.90;;;;;;5000354;28;20063;-43
2023/03/12 07:33:55;;;;;;;4.32;2.90;;;4.10;99.90;;;;;;5001553;28;20140;-44
2023/03/12 07:36:20;;;;;;;10.68;4.03;;;4.10;99.90;;;;;;4999911;28;20125;-43
2023/03/12 07:38:46;;;;;;;6.55;3.95;;;4.20;99.90;;;;;;5001581;28;20053;-43
2023/03/12 07:41:11;;;;;;;3.97;3.08;;;4.10;99.90;;;;;;5000902;28;20143;-43
2023/03/12 07:43:37;;;;;;;3.83;2.90;;;4.10;99.90;;;;;;5000616;28;20028;-43
2023/03/12 07:46:03;;;;;;;5.15;3.10;;;4.10;99.90;;;;;;5001153;28;20742;-43
2023/03/12 07:48:28;;;;;;;7.75;3.67;;;4.20;99.90;;;;;;5001881;28;20458;-43
2023/03/12 07:50:54;;;;;;;5.90;2.90;;;4.10;99.90;;;;;;5000043;28;21486;-43
2023/03/12 07:53:19;;;;;;;5.18;3.10;;;4.20;99.90;;;;;;5001401;28;20576;-43
2023/03/12 07:55:46;;;;;;;5.28;3.40;;;4.10;99.90;;;;;;5001154;28;20050;-43
2023/03/12 07:58:13;;;;;;;5.45;3.55;;;4.10;99.90;;;;;;5000982;28;20049;-43
2023/03/12 08:00:38;;;;;;;4.65;3.10;;;4.10;99.90;;;;;;4999635;28;20076;-42
2023/03/12 08:03:04;;;;;;;6.38;4.40;;;4.10;99.90;;;;;;4997438;28;20153;-43
2023/03/12 08:05:30;;;;;;;5.90;3.75;;;4.20;99.90;;;;;;5000299;28;20038;-42
2023/03/12 08:07:56;;;;;;;6.97;3.88;;;4.20;99.90;;;;;;5000860;28;20047;-42
2023/03/12 08:10:22;;;;;;;5.63;3.63;;;4.20;99.90;;;;;;4999063;28;20105;-42
2023/03/12 08:12:51;;;;;;;7.75;3.70;;;4.20;99.90;;;;;;4999419;28;20494;-42
2023/03/12 08:15:16;;;;;;;6.10;4.47;;;4.20;99.90;;;;;;4998915;28;20018;-42
2023/03/12 08:17:42;;;;;;;9.55;5.10;;;4.30;99.90;;;;;;4999821;28;20080;-43
2023/03/12 08:20:11;;;;;;;6.50;3.88;;;4.30;99.90;;;;;;4999993;28;20416;-43
2023/03/12 08:22:38;;;;;;;7.50;4.00;;;4.30;99.90;;;;;;4999866;28;20824;-43
2023/03/12 08:25:04;;;;;;;4.88;4.22;;;4.30;99.90;;;;;;4999419;28;20049;-43
2023/03/12 08:27:30;;;;;;;4.70;3.53;;;4.30;99.90;;;;;;4999493;28;20022;-43
2023/03/12 08:29:55;;;;;;;5.95;4.13;;;4.40;99.90;;;;;;5000115;28;20034;-43
2023/03/12 08:32:21;;;;;;;4.75;3.85;;;4.40;99.90;;;;;;4999140;28;20036;-42
2023/03/12 08:34:49;;;;;;;5.10;4.03;;;4.40;99.90;;;;;;5000139;28;20060;-42
2023/03/12 08:37:15;;;;;;;6.00;3.78;;;4.40;99.90;;;;;;4999374;28;20028;-42
2023/03/12 08:39:41;;;;;;;5.18;3.65;;;4.50;99.90;;;;;;4999325;28;20041;-43
2023/03/12 08:42:06;;;;;;;4.68;3.53;;;4.50;99.90;;;;;;4999551;28;20030;-42
2023/03/12 08:44:32;;;;;;;4.50;3.80;;;4.50;99.90;;;;;;4999584;28;20034;-42
2023/03/12 08:46:58;;;;;;;5.95;4.22;;;4.50;99.90;;;;;;4983300;28;20029;-42
2023/03/12 08:49:23;;;;;;;6.38;4.68;;;4.60;99.90;;;;;;4996917;28;20445;-44
2023/03/12 08:51:52;;;;;;;6.97;4.15;;;4.60;99.90;;;;;;4997440;28;20394;-43
2023/03/12 08:54:19;;;;;;;4.45;3.72;;;4.60;99.90;;;;;;4995651;28;20034;-44
2023/03/12 08:56:48;;;;;;;5.65;4.53;;;4.60;99.90;;;;;;4996520;28;20050;-44
2023/03/12 08:59:13;;;;;;;6.55;4.20;;;4.70;99.90;;;;;;4995055;28;20033;-42
2023/03/12 09:01:42;;;;;;;5.25;3.80;;;4.70;99.90;;;;;;4995097;28;20722;-42
2023/03/12 09:04:08;;;;;;;5.15;3.53;;;4.80;99.90;;;;;;4995759;28;20045;-43
2023/03/12 09:06:34;;;;;;;4.93;3.53;;;4.80;99.90;;;;;;4995966;28;20036;-43
2023/03/12 09:09:03;;;;;;;6.82;5.05;;;4.80;99.90;;;;;;4996477;28;20030;-43
2023/03/12 09:11:33;;;;;;;7.85;6.50;;;4.90;99.90;;;;;;4996207;28;20026;-42
2023/03/12 09:14:00;;;;;;;7.40;5.18;;;4.90;99.90;;;;;;4996777;28;20022;-43
2023/03/12 09:16:25;;;;;;;6.15;4.85;;;4.90;99.90;;;;;;4997450;28;20451;-44
2023/03/12 09:18:51;;;;;;;5.32;4.07;;;4.90;99.90;;;;;;4996923;28;20470;-44
2023/03/12 09:21:17;;;;;;;5.82;4.53;;;5.00;99.90;;;;;;4995279;28;20034;-42
2023/03/12 09:23:42;;;;;;;5.32;4.32;;;5.00;99.90;;;;;;4995889;28;20484;-42
2023/03/12 09:26:10;;;;;;;5.72;4.90;;;5.10;99.90;;;;;;4995322;28;20073;-42
2023/03/12 09:28:35;;;;;;;6.80;5.45;;;5.10;99.90;;;;;;4993777;28;20034;-44
2023/03/12 09:31:02;;;;;;;5.45;4.80;;;5.20;99.90;;;;;;4996147;28;20759;-43
2023/03/12 09:33:28;;;;;;;7.55;4.82;;;5.20;99.90;;;;;;4996896;28;20026;-43
2023/03/12 09:35:58;;;;;;;4.97;4.47;;;5.20;99.90;;;;;;4995637;28;20071;-43
2023/03/12 09:38:24;;;;;;;5.63;4.80;;;5.30;99.90;;;;;;4996381;28;20088;-43
2023/03/12 09:40:50;;;;;;;6.90;4.88;;;5.40;99.90;;;;;;4996297;28;20046;-43
2023/03/12 09:43:26;;;;;;;6.15;4.95;;;5.40;99.90;;;;;;4995383;28;20033;-43
2023/03/12 09:45:53;;;;;;;6.70;4.97;;;5.40;99.90;;;;;;4995846;28;20492;-43
2023/03/12 09:48:30;;;;;;;5.03;4.47;;;5.50;99.90;;;;;;4997002;28;20030;-43
2023/03/12 09:50:59;;;;;;;4.85;4.35;;;5.60;99.90;;;;;;4996112;28;20462;-43
2023/03/12 09:53:32;;;;;;;6.28;4.65;;;5.70;99.90;;;;;;4996137;28;20071;-44
2023/03/12 09:56:01;;;;;;;6.85;5.45;;;5.80;99.90;;;;;;4995675;28;20026;-43
2023/03/12 09:58:32;;;;;;;8.07;5.28;;;5.80;99.90;;;;;;4996779;28;20050;-43
2023/03/12 10:01:38;;;;;;;6.93;5.82;;;5.90;99.90;;;;;;4995545;28;20797;-44
2023/03/12 10:04:28;;;;;;;7.90;5.63;;;6.00;99.90;;;;;;4977967;28;20121;-44
2023/03/12 10:07:10;;;;;;;7.40;5.40;;;6.00;99.90;;;;;;4998879;28;20041;-43
2023/03/12 10:10:03;;;;;;;7.72;6.75;;;6.10;99.90;;;;;;4993451;28;20034;-44
2023/03/12 10:13:07;;;;;;;10.18;6.63;;;6.10;99.90;;;;;;4999730;28;20462;-44
2023/03/12 10:15:39;;;;;;;8.65;7.35;;;6.20;99.90;;;;;;4993796;28;20777;-44
2023/03/12 10:18:13;;;;;;;8.82;7.93;;;6.30;99.90;;;;;;4996670;28;20449;-43
2023/03/12 10:20:58;;;;;;;8.48;7.57;;;6.30;99.90;;;;;;4998472;28;20130;-43
2023/03/12 10:23:29;;;;;;;10.45;7.43;;;6.40;99.90;;;;;;5000026;28;20017;-43
2023/03/12 10:26:00;;;;;;;9.30;7.25;;;6.40;99.90;;;;;;4999727;28;20032;-43
2023/03/12 10:28:40;;;;;;;9.82;7.90;;;6.40;99.90;;;;;;4999615;28;20022;-43
2023/03/12 10:31:26;;;;;;;10.60;7.97;;;6.50;99.90;;;;;;4995739;28;20031;-43
2023/03/12 10:33:57;;;;;;;13.10;8.38;;;6.60;99.90;;;;;;4999341;28;20038;-42
2023/03/12 10:36:28;;;;;;;9.05;6.60;;;6.60;99.90;;;;;;4999126;28;20129;-43
2023/03/12 10:38:53;;;;;;;9.55;7.55;;;6.70;99.90;;;;;;4999234;28;20042;-43
2023/03/12 10:41:22;;;;;;;8.93;7.97;;;6.80;99.90;;;;;;4997953;28;20545;-43
2023/03/12 10:43:48;;;;;;;10.10;8.15;;;6.90;99.90;;;;;;4999153;28;20022;-43
2023/03/12 10:46:14;;;;;;;12.77;8.23;;;6.90;99.90;;;;;;5001011;28;20433;-43
2023/03/12 10:48:40;;;;;;;11.88;8.43;;;7.00;99.90;;;;;;5002987;28;20032;-44
2023/03/12 10:51:11;;;;;;;11.88;8.75;;;7.10;99.90;;;;;;5001053;28;20177;-43
2023/03/12 10:53:43;;;;;;;10.95;8.80;;;7.20;99.90;;;;;;5001045;28;20117;-43
2023/03/12 10:56:14;;;;;;;10.57;9.20;;;7.30;99.90;;;;;;5002061;28;20097;-43
2023/03/12 10:59:00;;;;;;;13.40;9.93;;;7.40;99.90;;;;;;5001501;28;20084;-44
2023/03/12 11:01:30;;;;;;;12.40;9.77;;;7.50;99.90;;;;;;5002504;28;20343;-43
2023/03/12 11:04:16;;;;;;;12.80;10.27;;;7.60;99.90;;;;;;5002205;28;20030;-44
2023/03/12 11:06:42;;;;;;;12.50;9.70;;;7.70;99.90;;;;;;5002300;28;20088;-42
2023/03/12 11:09:18;;;;;;;11.25;9.20;;;7.80;99.90;;;;;;4997549;28;20026;-43
2023/03/12 11:11:48;;;;;;;14.95;11.05;;;7.90;99.90;;;;;;5002476;28;20037;-43
2023/03/12 11:14:44;;;;;;;12.48;9.70;;;7.90;99.90;;;;;;5000879;28;20112;-44
2023/03/12 11:17:28;;;;;;;10.85;9.25;;;7.90;99.90;;;;;;5001421;28;20504;-43
2023/03/12 11:19:54;;;;;;;12.40;10.43;;;8.00;99.90;;;;;;4997819;28;20112;-43
2023/03/12 11:22:34;;;;;;;14.20;10.82;;;8.00;99.90;;;;;;5001241;28;20803;-43
2023/03/12 11:25:06;;;;;;;13.07;10.23;;;8.10;99.90;;;;;;5001421;28;20036;-43
2023/03/12 11:27:44;;;;;;;15.90;10.70;;;8.10;99.90;;;;;;5001918;28;20469;-43
2023/03/12 11:30:16;;;;;;;14.18;10.93;;;8.20;99.90;;;;;;5000323;28;20038;-43
2023/03/12 11:32:47;;;;;;;14.60;10.73;;;8.30;99.90;;;;;;5001902;28;20429;-43
2023/03/12 11:35:16;;;;;;;18.17;12.23;;;8.40;99.90;;;;;;4998562;28;20041;-44
2023/03/12 11:38:19;;;;;;;18.10;11.45;;;8.40;99.90;;;;;;5000903;28;20029;-43
2023/03/12 11:41:14;;;;;;;14.48;10.70;;;8.50;99.90;;;;;;4997754;28;20519;-43
2023/03/12 11:43:58;;;;;;;19.42;10.50;;;8.50;99.90;;;;;;5000925;28;20048;-43
2023/03/12 11:46:45;;;;;;;15.60;10.48;;;8.60;99.90;;;;;;4991993;28;20037;-43
2023/03/12 11:49:19;;;;;;;15.00;9.80;;;8.70;99.90;;;;;;5000196;28;20028;-43
2023/03/12 11:52:15;;;;;;;15.05;9.60;;;8.80;99.90;;;;;;5001150;28;20583;-43
2023/03/12 11:55:12;;;;;;;13.50;8.23;;;8.80;99.90;;;;;;5001080;28;20076;-44
2023/03/12 11:58:00;;;;;;;15.05;8.77;;;8.90;99.90;;;;;;5001012;28;20096;-43
2023/03/12 12:00:34;;;;;;;14.65;7.75;;;9.00;99.90;;;;;;5000517;28;20038;-43
2023/03/12 12:03:38;;;;;;;12.98;7.40;;;9.10;99.90;;;;;;5000236;28;20934;-43
2023/03/12 12:06:15;;;;;;;13.15;6.80;;;9.10;99.90;;;;;;4999977;28;20499;-44
2023/03/12 12:09:35;;;;;;;12.82;6.57;;;9.20;99.90;;;;;;5000719;28;20032;-43
2023/03/12 12:12:42;;;;;;;14.02;6.22;;;9.30;99.90;;;;;;5000837;28;20122;-43
2023/03/12 12:15:33;;;;;;;11.48;5.15;;;9.50;99.90;;;;;;5000135;28;20103;-43
2023/03/12 12:18:37;;;;;;;10.98;5.07;;;9.60;99.90;;;;;;4951885;28;20069;-44
2023/03/12 12:21:21;;;;;;;14.63;4.85;;;9.70;99.90;;;;;;4995528;28;20050;-43
2023/03/12 12:24:12;;;;;;;11.27;4.45;;;9.70;99.90;;;;;;4999403;28;20029;-44
2023/03/12 12:26:47;;;;;;;14.27;4.80;;;9.80;99.90;;;;;;4999979;28;20037;-43
2023/03/12 12:29:12;;;;;;;16.00;5.07;;;9.80;99.90;;;;;;5000530;28;20564;-43
2023/03/12 12:31:55;;;;;;;18.38;4.95;;;10.00;99.90;;;;;;4999560;28;20141;-43
2023/03/12 12:34:41;;;;;;;16.50;4.15;;;10.00;99.90;;;;;;4991107;28;20462;-44
2023/03/12 12:37:30;;;;;;;14.95;4.82;;;10.10;99.90;;;;;;4998337;28;20033;-43
2023/03/12 12:40:17;;;;;;;15.68;4.85;;;10.10;99.90;;;;;;5001577;28;20049;-44
2023/03/12 12:42:52;;;;;;;19.73;5.60;;;10.10;99.90;;;;;;4997135;28;20056;-43
2023/03/12 12:45:19;;;;;;;24.95;5.80;;;10.00;99.90;;;;;;4980269;28;20046;-43
2023/03/12 12:48:08;;;;;;;19.45;5.53;;;9.90;99.90;;;;;;5000275;28;20040;-43
2023/03/12 12:50:37;;;;;;;27.95;6.75;;;9.90;99.90;;;;;;4982835;28;20092;-44
2023/03/12 12:53:25;;;;;;;22.95;4.68;;;9.90;99.90;;;;;;4995910;28;20029;-43
2023/03/12 12:56:14;;;;;;;16.75;4.50;;;9.90;99.90;;;;;;4984378;28;20045;-43
2023/03/12 12:58:57;;;;;;;18.60;4.60;;;10.00;99.90;;;;;;4988889;28;20038;-44
2023/03/12 13:01:23;;;;;;;18.83;4.25;;;10.10;99.90;;;;;;4999807;28;20053;-44
2023/03/12 13:03:49;;;;;;;18.40;4.53;;;10.10;99.90;;;;;;4989537;28;20109;-46
2023/03/12 13:06:15;;;;;;;15.23;4.35;;;10.10;99.90;;;;;;4998202;28;20040;-44
2023/03/12 13:08:41;;;;;;;18.33;4.47;;;10.20;99.90;;;;;;4999645;28;20026;-44
2023/03/12 13:11:16;;;;;;;18.05;4.70;;;10.20;99.90;;;;;;5000148;28;20042;-43